sensor_id;sensor_type;location;lat;lon;timestamp;temperature;humidity
21602;DHT22;10963;50.934;4.668;2023-04-24T00:01:24;11.30;99.90
21602;DHT22;10963;50.934;4.668;2023-04-24T00:03:50;11.30;99.90
21602;DHT22;10963;50.934;4.668;2023-04-24T00:06:18;11.20;99.90
21602;DHT22;10963;50.934;4.668;2023-04-24T00:08:44;11.10;99.90
21602;DHT22;10963;50.934;4.668;2023-04-24T00:11:12;11.20;99.90
21602;DHT22;10963;50.934;4.668;2023-04-24T00:13:40;11.20;99.90
21602;DHT22;10963;50.934;4.668;2023-04-24T00:16:06;11.20;99.90
21602;DHT22;10963;50.934;4.668;2023-04-24T00:18:31;11.30;99.90
21602;DHT22;10963;50.934;4.668;2023-04-24T00:20:57;11.20;99.90
21602;DHT22;10963;50.934;4.668;2023-04-24T00:23:26;11.10;99.90
21602;DHT22;10963;50.934;4.668;2023-04-24T00:25:52;11.00;99.90
21602;DHT22;10963;50.934;4.668;2023-04-24T00:28:17;11.00;99.90
21602;DHT22;10963;50.934;4.668;2023-04-24T00:30:43;11.00;99.90
21602;DHT22;10963;50.934;4.668;2023-04-24T00:33:11;11.00;99.90
21602;DHT22;10963;50.934;4.668;2023-04-24T00:35:39;11.10;99.90
21602;DHT22;10963;50.934;4.668;2023-04-24T00:38:07;11.20;99.90
21602;DHT22;10963;50.934;4.668;2023-04-24T00:40:33;11.20;99.90
21602;DHT22;10963;50.934;4.668;2023-04-24T00:42:59;11.30;99.90
21602;DHT22;10963;50.934;4.668;2023-04-24T00:45:24;11.30;99.90
21602;DHT22;10963;50.934;4.668;2023-04-24T00:47:52;11.30;99.90
21602;DHT22;10963;50.934;4.668;2023-04-24T00:50:20;11.10;99.90
21602;DHT22;10963;50.934;4.668;2023-04-24T00:52:46;11.10;99.90
21602;DHT22;10963;50.934;4.668;2023-04-24T00:55:12;10.90;99.90
21602;DHT22;10963;50.934;4.668;2023-04-24T00:57:38;10.70;99.90
21602;DHT22;10963;50.934;4.668;2023-04-24T01:00:06;10.70;99.90
21602;DHT22;10963;50.934;4.668;2023-04-24T01:02:38;10.70;99.90
21602;DHT22;10963;50.934;4.668;2023-04-24T01:05:08;10.70;99.90
21602;DHT22;10963;50.934;4.668;2023-04-24T01:07:34;10.60;99.90
21602;DHT22;10963;50.934;4.668;2023-04-24T01:10:02;10.70;99.90
21602;DHT22;10963;50.934;4.668;2023-04-24T01:12:28;10.60;99.90
21602;DHT22;10963;50.934;4.668;2023-04-24T01:14:54;10.60;99.90
21602;DHT22;10963;50.934;4.668;2023-04-24T01:17:24;10.60;99.90
21602;DHT22;10963;50.934;4.668;2023-04-24T01:19:50;10.60;99.90
21602;DHT22;10963;50.934;4.668;2023-04-24T01:22:20;10.60;99.90
21602;DHT22;10963;50.934;4.668;2023-04-24T01:24:46;10.70;99.90
21602;DHT22;10963;50.934;4.668;2023-04-24T01:27:12;10.60;99.90
21602;DHT22;10963;50.934;4.668;2023-04-24T01:29:40;10.70;99.90
21602;DHT22;10963;50.934;4.668;2023-04-24T01:32:06;10.70;99.90
21602;DHT22;10963;50.934;4.668;2023-04-24T01:34:32;10.60;99.90
21602;DHT22;10963;50.934;4.668;2023-04-24T01:37:03;10.60;99.90
21602;DHT22;10963;50.934;4.668;2023-04-24T01:39:30;10.50;99.90
21602;DHT22;10963;50.934;4.668;2023-04-24T01:41:56;10.50;99.90
21602;DHT22;10963;50.934;4.668;2023-04-24T01:44:25;10.50;99.90
21602;DHT22;10963;50.934;4.668;2023-04-24T01:46:55;10.50;99.90
21602;DHT22;10963;50.934;4.668;2023-04-24T01:49:25;10.50;99.90
21602;DHT22;10963;50.934;4.668;2023-04-24T01:51:51;10.60;99.90
21602;DHT22;10963;50.934;4.668;2023-04-24T01:54:17;10.60;99.90
21602;DHT22;10963;50.934;4.668;2023-04-24T01:56:43;10.50;99.90
21602;DHT22;10963;50.934;4.668;2023-04-24T01:59:10;10.50;99.90
21602;DHT22;10963;50.934;4.668;2023-04-24T02:01:39;10.50;99.90
21602;DHT22;10963;50.934;4.668;2023-04-24T02:04:06;10.60;99.90
21602;DHT22;10963;50.934;4.668;2023-04-24T02:06:34;10.60;99.90
21602;DHT22;10963;50.934;4.668;2023-04-24T02:09:00;10.60;99.90
21602;DHT22;10963;50.934;4.668;2023-04-24T02:11:26;10.60;99.90
21602;DHT22;10963;50.934;4.668;2023-04-24T02:13:52;10.50;99.90
21602;DHT22;10963;50.934;4.668;2023-04-24T02:16:18;10.40;99.90
21602;DHT22;10963;50.934;4.668;2023-04-24T02:18:47;10.30;99.90
21602;DHT22;10963;50.934;4.668;2023-04-24T02:21:12;10.30;99.90
21602;DHT22;10963;50.934;4.668;2023-04-24T02:23:38;10.40;99.90
21602;DHT22;10963;50.934;4.668;2023-04-24T02:26:04;10.30;99.90
21602;DHT22;10963;50.934;4.668;2023-04-24T02:28:35;10.20;99.90
21602;DHT22;10963;50.934;4.668;2023-04-24T02:31:05;10.20;99.90
21602;DHT22;10963;50.934;4.668;2023-04-24T02:33:34;10.10;99.90
21602;DHT22;10963;50.934;4.668;2023-04-24T02:36:04;10.10;99.90
21602;DHT22;10963;50.934;4.668;2023-04-24T02:38:32;10.10;99.90
21602;DHT22;10963;50.934;4.668;2023-04-24T02:41:02;10.10;99.90
21602;DHT22;10963;50.934;4.668;2023-04-24T02:43:31;10.20;99.90
21602;DHT22;10963;50.934;4.668;2023-04-24T02:45:57;10.10;99.90
21602;DHT22;10963;50.934;4.668;2023-04-24T02:48:26;10.10;99.90
21602;DHT22;10963;50.934;4.668;2023-04-24T02:50:51;10.20;99.90
21602;DHT22;10963;50.934;4.668;2023-04-24T02:53:21;10.30;99.90
21602;DHT22;10963;50.934;4.668;2023-04-24T02:55:53;10.40;99.90
21602;DHT22;10963;50.934;4.668;2023-04-24T02:58:19;10.30;99.90
21602;DHT22;10963;50.934;4.668;2023-04-24T03:00:46;10.20;99.90
21602;DHT22;10963;50.934;4.668;2023-04-24T03:03:12;10.10;99.90
21602;DHT22;10963;50.934;4.668;2023-04-24T03:05:38;10.10;99.90
21602;DHT22;10963;50.934;4.668;2023-04-24T03:08:04;10.10;99.90
21602;DHT22;10963;50.934;4.668;2023-04-24T03:10:30;10.00;99.90
21602;DHT22;10963;50.934;4.668;2023-04-24T03:12:56;9.90;99.90
21602;DHT22;10963;50.934;4.668;2023-04-24T03:15:21;10.00;99.90
21602;DHT22;10963;50.934;4.668;2023-04-24T03:17:50;10.10;99.90
21602;DHT22;10963;50.934;4.668;2023-04-24T03:20:18;10.00;99.90
21602;DHT22;10963;50.934;4.668;2023-04-24T03:22:46;10.00;99.90
21602;DHT22;10963;50.934;4.668;2023-04-24T03:25:14;9.80;99.90
21602;DHT22;10963;50.934;4.668;2023-04-24T03:27:39;9.90;99.90
21602;DHT22;10963;50.934;4.668;2023-04-24T03:30:08;9.90;99.90
21602;DHT22;10963;50.934;4.668;2023-04-24T03:32:34;10.10;99.90
21602;DHT22;10963;50.934;4.668;2023-04-24T03:35:00;10.00;99.90
21602;DHT22;10963;50.934;4.668;2023-04-24T03:37:26;10.10;99.90
21602;DHT22;10963;50.934;4.668;2023-04-24T03:39:52;10.00;99.90
21602;DHT22;10963;50.934;4.668;2023-04-24T03:42:17;9.90;99.90
21602;DHT22;10963;50.934;4.668;2023-04-24T03:44:48;10.00;99.90
21602;DHT22;10963;50.934;4.668;2023-04-24T03:47:16;10.10;99.90
21602;DHT22;10963;50.934;4.668;2023-04-24T03:49:43;10.00;99.90
21602;DHT22;10963;50.934;4.668;2023-04-24T03:52:09;10.00;99.90
21602;DHT22;10963;50.934;4.668;2023-04-24T03:54:35;10.10;99.90
21602;DHT22;10963;50.934;4.668;2023-04-24T03:57:01;10.10;99.90
21602;DHT22;10963;50.934;4.668;2023-04-24T03:59:30;10.30;99.90
21602;DHT22;10963;50.934;4.668;2023-04-24T04:01:58;10.10;99.90
21602;DHT22;10963;50.934;4.668;2023-04-24T04:04:24;10.10;99.90
21602;DHT22;10963;50.934;4.668;2023-04-24T04:06:52;10.20;99.90
21602;DHT22;10963;50.934;4.668;2023-04-24T04:09:21;10.40;99.90
21602;DHT22;10963;50.934;4.668;2023-04-24T04:11:46;10.40;99.90
21602;DHT22;10963;50.934;4.668;2023-04-24T04:14:12;10.40;99.90
21602;DHT22;10963;50.934;4.668;2023-04-24T04:16:38;10.30;99.90
21602;DHT22;10963;50.934;4.668;2023-04-24T04:19:04;10.30;99.90
21602;DHT22;10963;50.934;4.668;2023-04-24T04:21:30;10.20;99.90
21602;DHT22;10963;50.934;4.668;2023-04-24T04:23:57;10.20;99.90
21602;DHT22;10963;50.934;4.668;2023-04-24T04:26:23;10.20;99.90
21602;DHT22;10963;50.934;4.668;2023-04-24T04:28:51;10.10;99.90
21602;DHT22;10963;50.934;4.668;2023-04-24T04:31:19;10.10;99.90
21602;DHT22;10963;50.934;4.668;2023-04-24T04:33:45;10.20;99.90
21602;DHT22;10963;50.934;4.668;2023-04-24T04:36:13;10.40;99.90
21602;DHT22;10963;50.934;4.668;2023-04-24T04:38:47;10.40;99.90
21602;DHT22;10963;50.934;4.668;2023-04-24T04:41:13;10.30;99.90
21602;DHT22;10963;50.934;4.668;2023-04-24T04:43:39;10.30;99.90
21602;DHT22;10963;50.934;4.668;2023-04-24T04:46:08;10.40;99.90
21602;DHT22;10963;50.934;4.668;2023-04-24T04:48:36;10.40;99.90
21602;DHT22;10963;50.934;4.668;2023-04-24T04:51:01;10.40;99.90
21602;DHT22;10963;50.934;4.668;2023-04-24T04:53:27;10.50;99.90
21602;DHT22;10963;50.934;4.668;2023-04-24T04:55:53;10.30;99.90
21602;DHT22;10963;50.934;4.668;2023-04-24T04:58:19;10.40;99.90
21602;DHT22;10963;50.934;4.668;2023-04-24T05:00:46;10.40;99.90
21602;DHT22;10963;50.934;4.668;2023-04-24T05:03:17;10.50;99.90
21602;DHT22;10963;50.934;4.668;2023-04-24T05:05:43;10.30;99.90
21602;DHT22;10963;50.934;4.668;2023-04-24T05:08:09;10.30;99.90
21602;DHT22;10963;50.934;4.668;2023-04-24T05:10:34;10.20;99.90
21602;DHT22;10963;50.934;4.668;2023-04-24T05:13:05;10.20;99.90
21602;DHT22;10963;50.934;4.668;2023-04-24T05:15:33;10.20;99.90
21602;DHT22;10963;50.934;4.668;2023-04-24T05:17:59;10.10;99.90
21602;DHT22;10963;50.934;4.668;2023-04-24T05:20:27;10.10;99.90
21602;DHT22;10963;50.934;4.668;2023-04-24T05:22:56;10.00;99.90
21602;DHT22;10963;50.934;4.668;2023-04-24T05:25:21;10.00;99.90
21602;DHT22;10963;50.934;4.668;2023-04-24T05:27:47;9.90;99.90
21602;DHT22;10963;50.934;4.668;2023-04-24T05:30:15;10.00;99.90
21602;DHT22;10963;50.934;4.668;2023-04-24T05:32:41;10.00;99.90
21602;DHT22;10963;50.934;4.668;2023-04-24T05:35:07;10.00;99.90
21602;DHT22;10963;50.934;4.668;2023-04-24T05:37:33;9.90;99.90
21602;DHT22;10963;50.934;4.668;2023-04-24T05:40:01;9.80;99.90
21602;DHT22;10963;50.934;4.668;2023-04-24T05:42:26;9.80;99.90
21602;DHT22;10963;50.934;4.668;2023-04-24T05:44:52;9.80;99.90
21602;DHT22;10963;50.934;4.668;2023-04-24T05:47:22;9.90;99.90
21602;DHT22;10963;50.934;4.668;2023-04-24T05:49:48;9.90;99.90
21602;DHT22;10963;50.934;4.668;2023-04-24T05:52:16;9.90;99.90
21602;DHT22;10963;50.934;4.668;2023-04-24T05:54:41;9.80;99.90
21602;DHT22;10963;50.934;4.668;2023-04-24T05:57:12;9.90;99.90
21602;DHT22;10963;50.934;4.668;2023-04-24T05:59:38;9.80;99.90
21602;DHT22;10963;50.934;4.668;2023-04-24T06:02:06;9.80;99.90
21602;DHT22;10963;50.934;4.668;2023-04-24T06:04:32;9.80;99.90
21602;DHT22;10963;50.934;4.668;2023-04-24T06:06:59;9.80;99.90
21602;DHT22;10963;50.934;4.668;2023-04-24T06:09:25;9.90;99.90
21602;DHT22;10963;50.934;4.668;2023-04-24T06:11:51;9.90;99.90
21602;DHT22;10963;50.934;4.668;2023-04-24T06:14:23;10.00;99.90
21602;DHT22;10963;50.934;4.668;2023-04-24T06:16:51;10.00;99.90
21602;DHT22;10963;50.934;4.668;2023-04-24T06:19:17;10.00;99.90
21602;DHT22;10963;50.934;4.668;2023-04-24T06:21:42;10.00;99.90
21602;DHT22;10963;50.934;4.668;2023-04-24T06:24:10;10.00;99.90
21602;DHT22;10963;50.934;4.668;2023-04-24T06:26:38;9.90;99.90
21602;DHT22;10963;50.934;4.668;2023-04-24T06:29:04;9.90;99.90
21602;DHT22;10963;50.934;4.668;2023-04-24T06:31:30;9.90;99.90
21602;DHT22;10963;50.934;4.668;2023-04-24T06:33:58;9.90;99.90
21602;DHT22;10963;50.934;4.668;2023-04-24T06:36:24;9.90;99.90
21602;DHT22;10963;50.934;4.668;2023-04-24T06:38:52;9.80;99.90
21602;DHT22;10963;50.934;4.668;2023-04-24T06:41:18;9.80;99.90
21602;DHT22;10963;50.934;4.668;2023-04-24T06:43:43;9.70;99.90
21602;DHT22;10963;50.934;4.668;2023-04-24T06:46:12;9.70;99.90
21602;DHT22;10963;50.934;4.668;2023-04-24T06:48:38;9.80;99.90
21602;DHT22;10963;50.934;4.668;2023-04-24T06:51:04;9.90;99.90
21602;DHT22;10963;50.934;4.668;2023-04-24T06:53:29;9.90;99.90
21602;DHT22;10963;50.934;4.668;2023-04-24T06:55:55;9.80;99.90
21602;DHT22;10963;50.934;4.668;2023-04-24T06:58:21;9.80;99.90
21602;DHT22;10963;50.934;4.668;2023-04-24T07:00:47;9.90;99.90
21602;DHT22;10963;50.934;4.668;2023-04-24T07:03:15;10.10;99.90
21602;DHT22;10963;50.934;4.668;2023-04-24T07:05:41;10.20;99.90
21602;DHT22;10963;50.934;4.668;2023-04-24T07:08:07;10.20;99.90
21602;DHT22;10963;50.934;4.668;2023-04-24T07:10:36;10.10;99.90
21602;DHT22;10963;50.934;4.668;2023-04-24T07:13:05;9.90;99.90
21602;DHT22;10963;50.934;4.668;2023-04-24T07:15:36;10.00;99.90
21602;DHT22;10963;50.934;4.668;2023-04-24T07:18:04;10.20;99.90
21602;DHT22;10963;50.934;4.668;2023-04-24T07:20:33;10.30;99.90
21602;DHT22;10963;50.934;4.668;2023-04-24T07:22:59;10.30;99.90
21602;DHT22;10963;50.934;4.668;2023-04-24T07:25:25;10.40;99.90
21602;DHT22;10963;50.934;4.668;2023-04-24T07:27:50;10.40;99.90
21602;DHT22;10963;50.934;4.668;2023-04-24T07:30:16;10.50;99.90
21602;DHT22;10963;50.934;4.668;2023-04-24T07:32:44;10.40;99.90
21602;DHT22;10963;50.934;4.668;2023-04-24T07:35:10;10.40;99.90
21602;DHT22;10963;50.934;4.668;2023-04-24T07:37:38;10.40;99.90
21602;DHT22;10963;50.934;4.668;2023-04-24T07:40:07;10.30;99.90
21602;DHT22;10963;50.934;4.668;2023-04-24T07:42:33;10.30;99.90
21602;DHT22;10963;50.934;4.668;2023-04-24T07:45:01;10.30;99.90
21602;DHT22;10963;50.934;4.668;2023-04-24T07:47:27;10.40;99.90
21602;DHT22;10963;50.934;4.668;2023-04-24T07:49:52;10.30;99.90
21602;DHT22;10963;50.934;4.668;2023-04-24T07:52:23;10.30;99.90
21602;DHT22;10963;50.934;4.668;2023-04-24T07:54:49;10.30;99.90
21602;DHT22;10963;50.934;4.668;2023-04-24T07:57:15;10.20;99.90
21602;DHT22;10963;50.934;4.668;2023-04-24T07:59:41;10.10;99.90
21602;DHT22;10963;50.934;4.668;2023-04-24T08:02:07;10.00;99.90
21602;DHT22;10963;50.934;4.668;2023-04-24T08:04:33;10.00;99.90
21602;DHT22;10963;50.934;4.668;2023-04-24T08:06:59;10.00;99.90
21602;DHT22;10963;50.934;4.668;2023-04-24T08:09:25;10.10;99.90
21602;DHT22;10963;50.934;4.668;2023-04-24T08:11:50;10.30;99.90
21602;DHT22;10963;50.934;4.668;2023-04-24T08:14:18;10.50;99.90
21602;DHT22;10963;50.934;4.668;2023-04-24T08:16:46;10.70;99.90
21602;DHT22;10963;50.934;4.668;2023-04-24T08:19:12;10.90;99.90
21602;DHT22;10963;50.934;4.668;2023-04-24T08:21:40;10.90;99.90
21602;DHT22;10963;50.934;4.668;2023-04-24T08:24:06;11.00;99.90
21602;DHT22;10963;50.934;4.668;2023-04-24T08:26:35;11.00;99.90
21602;DHT22;10963;50.934;4.668;2023-04-24T08:29:04;11.10;99.90
21602;DHT22;10963;50.934;4.668;2023-04-24T08:31:32;11.30;99.90
21602;DHT22;10963;50.934;4.668;2023-04-24T08:33:57;11.30;99.90
21602;DHT22;10963;50.934;4.668;2023-04-24T08:36:24;11.30;99.90
21602;DHT22;10963;50.934;4.668;2023-04-24T08:38:49;11.40;99.90
21602;DHT22;10963;50.934;4.668;2023-04-24T08:41:15;11.60;99.90
21602;DHT22;10963;50.934;4.668;2023-04-24T08:43:43;11.60;99.90
21602;DHT22;10963;50.934;4.668;2023-04-24T08:46:13;11.80;99.90
21602;DHT22;10963;50.934;4.668;2023-04-24T08:48:39;12.10;99.90
21602;DHT22;10963;50.934;4.668;2023-04-24T08:51:11;12.50;99.90
21602;DHT22;10963;50.934;4.668;2023-04-24T08:53:42;12.80;99.90
21602;DHT22;10963;50.934;4.668;2023-04-24T08:56:11;13.20;99.90
21602;DHT22;10963;50.934;4.668;2023-04-24T08:58:38;13.40;99.90
21602;DHT22;10963;50.934;4.668;2023-04-24T09:01:04;13.70;99.90
21602;DHT22;10963;50.934;4.668;2023-04-24T09:03:31;13.70;99.90
21602;DHT22;10963;50.934;4.668;2023-04-24T09:05:58;13.40;99.90
21602;DHT22;10963;50.934;4.668;2023-04-24T09:08:26;13.30;99.90
21602;DHT22;10963;50.934;4.668;2023-04-24T09:10:53;12.90;99.90
21602;DHT22;10963;50.934;4.668;2023-04-24T09:13:20;12.60;99.90
21602;DHT22;10963;50.934;4.668;2023-04-24T09:15:48;12.40;99.90
21602;DHT22;10963;50.934;4.668;2023-04-24T09:18:19;12.30;99.90
21602;DHT22;10963;50.934;4.668;2023-04-24T09:21:06;12.10;99.90
21602;DHT22;10963;50.934;4.668;2023-04-24T09:23:32;12.00;99.90
21602;DHT22;10963;50.934;4.668;2023-04-24T09:26:00;12.00;99.90
21602;DHT22;10963;50.934;4.668;2023-04-24T09:28:37;12.20;99.90
21602;DHT22;10963;50.934;4.668;2023-04-24T09:31:18;12.50;99.90
21602;DHT22;10963;50.934;4.668;2023-04-24T09:34:04;12.90;99.90
21602;DHT22;10963;50.934;4.668;2023-04-24T09:36:39;13.10;99.90
21602;DHT22;10963;50.934;4.668;2023-04-24T09:39:08;13.50;99.90
21602;DHT22;10963;50.934;4.668;2023-04-24T09:44:16;13.60;99.90
21602;DHT22;10963;50.934;4.668;2023-04-24T09:46:46;13.50;99.90
21602;DHT22;10963;50.934;4.668;2023-04-24T09:49:25;13.40;99.90
21602;DHT22;10963;50.934;4.668;2023-04-24T09:51:51;13.10;99.90
21602;DHT22;10963;50.934;4.668;2023-04-24T09:54:21;13.00;99.90
21602;DHT22;10963;50.934;4.668;2023-04-24T09:56:50;13.00;99.90
21602;DHT22;10963;50.934;4.668;2023-04-24T09:59:19;13.30;99.90
21602;DHT22;10963;50.934;4.668;2023-04-24T10:01:48;13.70;99.90
21602;DHT22;10963;50.934;4.668;2023-04-24T10:04:28;13.90;99.90
21602;DHT22;10963;50.934;4.668;2023-04-24T10:06:57;13.70;99.90
21602;DHT22;10963;50.934;4.668;2023-04-24T10:09:26;13.70;99.90
21602;DHT22;10963;50.934;4.668;2023-04-24T10:11:53;13.80;99.90
21602;DHT22;10963;50.934;4.668;2023-04-24T10:14:25;13.90;99.90
21602;DHT22;10963;50.934;4.668;2023-04-24T10:16:55;13.90;99.90
21602;DHT22;10963;50.934;4.668;2023-04-24T10:19:25;13.70;99.90
21602;DHT22;10963;50.934;4.668;2023-04-24T10:21:56;13.50;99.90
21602;DHT22;10963;50.934;4.668;2023-04-24T10:24:25;13.30;99.90
21602;DHT22;10963;50.934;4.668;2023-04-24T10:26:51;13.40;99.90
21602;DHT22;10963;50.934;4.668;2023-04-24T10:29:20;13.50;99.90
21602;DHT22;10963;50.934;4.668;2023-04-24T10:31:49;13.40;99.90
21602;DHT22;10963;50.934;4.668;2023-04-24T10:34:16;13.30;99.90
21602;DHT22;10963;50.934;4.668;2023-04-24T10:36:50;13.30;99.90
21602;DHT22;10963;50.934;4.668;2023-04-24T10:39:16;13.20;99.90
21602;DHT22;10963;50.934;4.668;2023-04-24T10:41:44;13.20;99.90
21602;DHT22;10963;50.934;4.668;2023-04-24T10:44:22;13.10;99.90
21602;DHT22;10963;50.934;4.668;2023-04-24T10:46:55;13.30;99.90
21602;DHT22;10963;50.934;4.668;2023-04-24T10:49:33;13.50;99.90
21602;DHT22;10963;50.934;4.668;2023-04-24T10:52:04;13.40;99.90
21602;DHT22;10963;50.934;4.668;2023-04-24T11:00:09;13.60;99.90
21602;DHT22;10963;50.934;4.668;2023-04-24T11:02:41;13.50;99.90
21602;DHT22;10963;50.934;4.668;2023-04-24T11:05:15;13.60;99.90
21602;DHT22;10963;50.934;4.668;2023-04-24T11:10:46;14.00;99.90
21602;DHT22;10963;50.934;4.668;2023-04-24T11:13:16;14.30;99.90
21602;DHT22;10963;50.934;4.668;2023-04-24T11:15:45;14.60;99.90
21602;DHT22;10963;50.934;4.668;2023-04-24T11:18:42;15.00;99.90
21602;DHT22;10963;50.934;4.668;2023-04-24T11:21:19;15.20;99.90
21602;DHT22;10963;50.934;4.668;2023-04-24T11:23:45;15.10;99.90
21602;DHT22;10963;50.934;4.668;2023-04-24T11:26:24;14.90;99.90
21602;DHT22;10963;50.934;4.668;2023-04-24T11:29:08;14.40;99.90
21602;DHT22;10963;50.934;4.668;2023-04-24T11:31:35;13.90;99.90
21602;DHT22;10963;50.934;4.668;2023-04-24T11:34:10;13.70;99.90
21602;DHT22;10963;50.934;4.668;2023-04-24T11:36:40;13.80;99.90
21602;DHT22;10963;50.934;4.668;2023-04-24T11:39:06;14.00;99.90
21602;DHT22;10963;50.934;4.668;2023-04-24T11:41:34;14.10;99.90
21602;DHT22;10963;50.934;4.668;2023-04-24T11:44:01;13.80;99.90
21602;DHT22;10963;50.934;4.668;2023-04-24T11:46:29;13.80;99.90
21602;DHT22;10963;50.934;4.668;2023-04-24T11:48:56;13.90;99.90
21602;DHT22;10963;50.934;4.668;2023-04-24T11:51:26;13.80;99.90
21602;DHT22;10963;50.934;4.668;2023-04-24T11:53:56;13.60;99.90
21602;DHT22;10963;50.934;4.668;2023-04-24T11:56:23;13.70;99.90
21602;DHT22;10963;50.934;4.668;2023-04-24T11:58:54;13.60;99.90
21602;DHT22;10963;50.934;4.668;2023-04-24T12:01:22;13.90;99.90
21602;DHT22;10963;50.934;4.668;2023-04-24T12:03:58;14.20;99.90
21602;DHT22;10963;50.934;4.668;2023-04-24T12:06:29;14.60;99.90
21602;DHT22;10963;50.934;4.668;2023-04-24T12:08:56;15.20;99.90
21602;DHT22;10963;50.934;4.668;2023-04-24T12:11:23;15.30;99.90
21602;DHT22;10963;50.934;4.668;2023-04-24T12:13:49;15.00;99.90
21602;DHT22;10963;50.934;4.668;2023-04-24T12:16:14;14.70;99.90
21602;DHT22;10963;50.934;4.668;2023-04-24T12:18:46;14.50;99.90
21602;DHT22;10963;50.934;4.668;2023-04-24T12:21:24;14.60;99.90
21602;DHT22;10963;50.934;4.668;2023-04-24T12:23:54;14.50;99.90
21602;DHT22;10963;50.934;4.668;2023-04-24T12:26:21;14.40;99.90
21602;DHT22;10963;50.934;4.668;2023-04-24T12:28:50;14.30;99.90
21602;DHT22;10963;50.934;4.668;2023-04-24T12:31:16;14.30;99.90
21602;DHT22;10963;50.934;4.668;2023-04-24T12:33:42;14.10;99.90
21602;DHT22;10963;50.934;4.668;2023-04-24T12:36:12;13.80;99.90
21602;DHT22;10963;50.934;4.668;2023-04-24T12:38:38;13.70;99.90
21602;DHT22;10963;50.934;4.668;2023-04-24T12:41:11;13.80;99.90
21602;DHT22;10963;50.934;4.668;2023-04-24T12:43:37;13.90;99.90
21602;DHT22;10963;50.934;4.668;2023-04-24T12:46:04;14.20;99.90
21602;DHT22;10963;50.934;4.668;2023-04-24T12:48:34;14.50;99.90
21602;DHT22;10963;50.934;4.668;2023-04-24T12:51:00;14.70;99.90
21602;DHT22;10963;50.934;4.668;2023-04-24T12:53:29;14.50;99.90
21602;DHT22;10963;50.934;4.668;2023-04-24T12:56:00;14.40;99.90
21602;DHT22;10963;50.934;4.668;2023-04-24T12:58:26;14.20;99.90
21602;DHT22;10963;50.934;4.668;2023-04-24T13:00:54;14.40;99.90
21602;DHT22;10963;50.934;4.668;2023-04-24T13:03:20;14.40;99.90
21602;DHT22;10963;50.934;4.668;2023-04-24T13:05:45;14.50;99.90
21602;DHT22;10963;50.934;4.668;2023-04-24T13:08:11;14.70;99.90
21602;DHT22;10963;50.934;4.668;2023-04-24T13:10:38;14.70;99.90
21602;DHT22;10963;50.934;4.668;2023-04-24T13:13:07;14.80;99.90
21602;DHT22;10963;50.934;4.668;2023-04-24T13:15:33;15.00;99.90
21602;DHT22;10963;50.934;4.668;2023-04-24T13:17:59;15.10;99.90
21602;DHT22;10963;50.934;4.668;2023-04-24T13:20:25;15.40;99.90
21602;DHT22;10963;50.934;4.668;2023-04-24T13:22:53;15.40;99.90
21602;DHT22;10963;50.934;4.668;2023-04-24T13:25:19;15.60;99.90
21602;DHT22;10963;50.934;4.668;2023-04-24T13:27:45;15.80;99.90
21602;DHT22;10963;50.934;4.668;2023-04-24T13:30:11;15.70;99.90
21602;DHT22;10963;50.934;4.668;2023-04-24T13:32:37;15.50;99.90
21602;DHT22;10963;50.934;4.668;2023-04-24T13:35:06;15.30;99.90
21602;DHT22;10963;50.934;4.668;2023-04-24T13:37:32;14.90;99.90
21602;DHT22;10963;50.934;4.668;2023-04-24T13:39:57;14.60;99.90
21602;DHT22;10963;50.934;4.668;2023-04-24T13:42:23;14.50;99.90
21602;DHT22;10963;50.934;4.668;2023-04-24T13:44:49;14.50;99.90
21602;DHT22;10963;50.934;4.668;2023-04-24T13:47:16;14.40;99.90
21602;DHT22;10963;50.934;4.668;2023-04-24T13:49:44;14.50;99.90
21602;DHT22;10963;50.934;4.668;2023-04-24T13:52:12;14.50;99.90
21602;DHT22;10963;50.934;4.668;2023-04-24T13:54:41;14.70;99.90
21602;DHT22;10963;50.934;4.668;2023-04-24T13:57:08;14.70;99.90
21602;DHT22;10963;50.934;4.668;2023-04-24T13:59:36;14.80;99.90
21602;DHT22;10963;50.934;4.668;2023-04-24T14:02:02;14.90;99.90
21602;DHT22;10963;50.934;4.668;2023-04-24T14:04:28;15.00;99.90
21602;DHT22;10963;50.934;4.668;2023-04-24T14:06:53;15.10;99.90
21602;DHT22;10963;50.934;4.668;2023-04-24T14:09:22;15.20;99.90
21602;DHT22;10963;50.934;4.668;2023-04-24T14:11:50;15.10;99.90
21602;DHT22;10963;50.934;4.668;2023-04-24T14:14:19;15.10;99.90
21602;DHT22;10963;50.934;4.668;2023-04-24T14:16:46;15.00;99.90
21602;DHT22;10963;50.934;4.668;2023-04-24T14:19:17;15.00;99.90
21602;DHT22;10963;50.934;4.668;2023-04-24T14:21:43;15.10;99.90
21602;DHT22;10963;50.934;4.668;2023-04-24T14:24:10;15.10;99.90
21602;DHT22;10963;50.934;4.668;2023-04-24T14:26:36;15.00;99.90
21602;DHT22;10963;50.934;4.668;2023-04-24T14:29:02;15.00;99.90
21602;DHT22;10963;50.934;4.668;2023-04-24T14:31:28;15.10;99.90
21602;DHT22;10963;50.934;4.668;2023-04-24T14:33:53;15.00;99.90
21602;DHT22;10963;50.934;4.668;2023-04-24T14:36:21;15.10;99.90
21602;DHT22;10963;50.934;4.668;2023-04-24T14:38:47;15.00;99.90
21602;DHT22;10963;50.934;4.668;2023-04-24T14:41:13;14.80;99.90
21602;DHT22;10963;50.934;4.668;2023-04-24T14:43:39;14.90;99.90
21602;DHT22;10963;50.934;4.668;2023-04-24T14:46:07;15.10;99.90
21602;DHT22;10963;50.934;4.668;2023-04-24T14:48:32;15.10;99.90
21602;DHT22;10963;50.934;4.668;2023-04-24T14:50:58;15.20;99.90
21602;DHT22;10963;50.934;4.668;2023-04-24T14:53:29;15.10;99.90
21602;DHT22;10963;50.934;4.668;2023-04-24T14:55:55;15.00;99.90
21602;DHT22;10963;50.934;4.668;2023-04-24T14:58:20;14.90;99.90
21602;DHT22;10963;50.934;4.668;2023-04-24T15:00:49;14.90;99.90
21602;DHT22;10963;50.934;4.668;2023-04-24T15:03:19;14.80;99.90
21602;DHT22;10963;50.934;4.668;2023-04-24T15:05:50;14.70;99.90
21602;DHT22;10963;50.934;4.668;2023-04-24T15:08:18;14.60;99.90
21602;DHT22;10963;50.934;4.668;2023-04-24T15:10:44;14.60;99.90
21602;DHT22;10963;50.934;4.668;2023-04-24T15:13:10;14.60;99.90
21602;DHT22;10963;50.934;4.668;2023-04-24T15:15:35;14.50;99.90
21602;DHT22;10963;50.934;4.668;2023-04-24T15:18:05;14.60;99.90
21602;DHT22;10963;50.934;4.668;2023-04-24T15:20:31;14.60;99.90
21602;DHT22;10963;50.934;4.668;2023-04-24T15:22:57;14.60;99.90
21602;DHT22;10963;50.934;4.668;2023-04-24T15:25:29;14.60;99.90
21602;DHT22;10963;50.934;4.668;2023-04-24T15:27:55;14.50;99.90
21602;DHT22;10963;50.934;4.668;2023-04-24T15:30:21;14.40;99.90
21602;DHT22;10963;50.934;4.668;2023-04-24T15:32:49;14.30;99.90
21602;DHT22;10963;50.934;4.668;2023-04-24T15:35:15;14.30;99.90
21602;DHT22;10963;50.934;4.668;2023-04-24T15:37:41;14.50;99.90
21602;DHT22;10963;50.934;4.668;2023-04-24T15:40:10;14.70;99.90
21602;DHT22;10963;50.934;4.668;2023-04-24T15:42:39;14.50;99.90
21602;DHT22;10963;50.934;4.668;2023-04-24T15:45:05;14.30;99.90
21602;DHT22;10963;50.934;4.668;2023-04-24T15:47:34;14.20;99.90